sensor_id;sensor_type;location;lat;lon;timestamp;P1;durP1;ratioP1;P2;durP2;ratioP2
13603;SDS011;24578;48.264;11.436;2024-02-26T00:03:17;22.35;;;10.27;;
13603;SDS011;24578;48.264;11.436;2024-02-26T00:09:19;21.25;;;9.95;;
13603;SDS011;24578;48.264;11.436;2024-02-26T00:15:23;20.40;;;9.25;;
13603;SDS011;24578;48.264;11.436;2024-02-26T00:21:29;23.33;;;9.45;;
13603;SDS011;24578;48.264;11.436;2024-02-26T00:27:31;23.95;;;10.95;;
13603;SDS011;24578;48.264;11.436;2024-02-26T00:33:33;24.95;;;10.52;;
13603;SDS011;24578;48.264;11.436;2024-02-26T00:45:46;25.73;;;10.13;;
13603;SDS011;24578;48.264;11.436;2024-02-26T00:51:52;29.30;;;12.50;;
13603;SDS011;24578;48.264;11.436;2024-02-26T00:57:59;26.67;;;11.82;;
13603;SDS011;24578;48.264;11.436;2024-02-26T01:04:04;23.95;;;10.45;;
13603;SDS011;24578;48.264;11.436;2024-02-26T01:10:08;26.40;;;11.20;;
13603;SDS011;24578;48.264;11.436;2024-02-26T01:16:09;31.63;;;12.88;;
13603;SDS011;24578;48.264;11.436;2024-02-26T01:22:15;22.30;;;10.93;;
13603;SDS011;24578;48.264;11.436;2024-02-26T01:28:21;25.85;;;10.98;;
13603;SDS011;24578;48.264;11.436;2024-02-26T01:34:25;27.38;;;12.27;;
13603;SDS011;24578;48.264;11.436;2024-02-26T01:40:34;23.67;;;11.00;;
13603;SDS011;24578;48.264;11.436;2024-02-26T01:46:35;23.77;;;10.90;;
13603;SDS011;24578;48.264;11.436;2024-02-26T01:52:38;27.05;;;10.30;;
13603;SDS011;24578;48.264;11.436;2024-02-26T01:58:40;31.02;;;12.25;;
13603;SDS011;24578;48.264;11.436;2024-02-26T02:04:43;29.40;;;11.63;;
13603;SDS011;24578;48.264;11.436;2024-02-26T02:10:47;27.48;;;12.00;;
13603;SDS011;24578;48.264;11.436;2024-02-26T02:16:52;25.02;;;10.32;;
13603;SDS011;24578;48.264;11.436;2024-02-26T02:22:55;29.77;;;12.93;;
13603;SDS011;24578;48.264;11.436;2024-02-26T02:28:57;24.70;;;10.30;;
13603;SDS011;24578;48.264;11.436;2024-02-26T02:41:03;28.42;;;12.55;;
13603;SDS011;24578;48.264;11.436;2024-02-26T02:47:05;30.23;;;12.57;;
13603;SDS011;24578;48.264;11.436;2024-02-26T02:53:07;27.08;;;11.88;;
13603;SDS011;24578;48.264;11.436;2024-02-26T02:59:09;27.92;;;11.75;;
13603;SDS011;24578;48.264;11.436;2024-02-26T03:05:11;31.23;;;12.82;;
13603;SDS011;24578;48.264;11.436;2024-02-26T03:11:13;27.20;;;11.77;;
13603;SDS011;24578;48.264;11.436;2024-02-26T03:17:16;29.75;;;12.88;;
13603;SDS011;24578;48.264;11.436;2024-02-26T03:23:18;27.35;;;11.57;;
13603;SDS011;24578;48.264;11.436;2024-02-26T03:29:20;27.05;;;11.20;;
13603;SDS011;24578;48.264;11.436;2024-02-26T03:35:22;32.20;;;12.38;;
13603;SDS011;24578;48.264;11.436;2024-02-26T03:41:23;29.17;;;12.55;;
13603;SDS011;24578;48.264;11.436;2024-02-26T03:47:25;30.35;;;12.50;;
13603;SDS011;24578;48.264;11.436;2024-02-26T03:53:27;31.95;;;13.07;;
13603;SDS011;24578;48.264;11.436;2024-02-26T03:59:29;28.63;;;12.38;;
13603;SDS011;24578;48.264;11.436;2024-02-26T04:05:30;27.23;;;11.63;;
13603;SDS011;24578;48.264;11.436;2024-02-26T04:11:32;24.65;;;11.48;;
13603;SDS011;24578;48.264;11.436;2024-02-26T04:17:34;24.63;;;11.07;;
13603;SDS011;24578;48.264;11.436;2024-02-26T04:23:37;24.48;;;10.85;;
13603;SDS011;24578;48.264;11.436;2024-02-26T04:29:39;24.40;;;10.43;;
13603;SDS011;24578;48.264;11.436;2024-02-26T04:35:40;23.50;;;10.60;;
13603;SDS011;24578;48.264;11.436;2024-02-26T04:41:42;24.05;;;10.35;;
13603;SDS011;24578;48.264;11.436;2024-02-26T04:47:44;25.52;;;11.13;;
13603;SDS011;24578;48.264;11.436;2024-02-26T04:53:46;26.85;;;11.25;;
13603;SDS011;24578;48.264;11.436;2024-02-26T04:59:48;26.33;;;11.18;;
13603;SDS011;24578;48.264;11.436;2024-02-26T05:05:50;25.58;;;11.05;;
13603;SDS011;24578;48.264;11.436;2024-02-26T05:11:52;28.77;;;11.57;;
13603;SDS011;24578;48.264;11.436;2024-02-26T05:17:54;22.83;;;10.93;;
13603;SDS011;24578;48.264;11.436;2024-02-26T05:23:57;26.85;;;11.70;;
13603;SDS011;24578;48.264;11.436;2024-02-26T05:29:59;24.05;;;11.23;;
13603;SDS011;24578;48.264;11.436;2024-02-26T05:36:01;24.35;;;11.27;;
13603;SDS011;24578;48.264;11.436;2024-02-26T05:42:05;40.13;;;17.40;;
13603;SDS011;24578;48.264;11.436;2024-02-26T05:48:07;26.02;;;11.52;;
13603;SDS011;24578;48.264;11.436;2024-02-26T05:54:09;22.83;;;10.52;;
13603;SDS011;24578;48.264;11.436;2024-02-26T06:00:12;21.45;;;10.40;;
13603;SDS011;24578;48.264;11.436;2024-02-26T06:06:16;25.02;;;10.43;;
13603;SDS011;24578;48.264;11.436;2024-02-26T06:12:19;23.63;;;10.73;;
13603;SDS011;24578;48.264;11.436;2024-02-26T06:18:21;23.90;;;10.07;;
13603;SDS011;24578;48.264;11.436;2024-02-26T06:24:23;20.35;;;9.23;;
13603;SDS011;24578;48.264;11.436;2024-02-26T06:30:25;22.83;;;10.40;;
13603;SDS011;24578;48.264;11.436;2024-02-26T06:36:27;21.48;;;9.73;;
13603;SDS011;24578;48.264;11.436;2024-02-26T06:42:29;21.42;;;10.38;;
13603;SDS011;24578;48.264;11.436;2024-02-26T06:48:32;22.60;;;9.55;;
13603;SDS011;24578;48.264;11.436;2024-02-26T06:54:34;21.90;;;10.23;;
13603;SDS011;24578;48.264;11.436;2024-02-26T07:00:36;25.30;;;11.13;;
13603;SDS011;24578;48.264;11.436;2024-02-26T07:06:38;21.27;;;10.15;;
13603;SDS011;24578;48.264;11.436;2024-02-26T07:12:40;23.35;;;10.48;;
13603;SDS011;24578;48.264;11.436;2024-02-26T07:18:42;17.77;;;9.27;;
13603;SDS011;24578;48.264;11.436;2024-02-26T07:24:47;19.92;;;9.80;;
13603;SDS011;24578;48.264;11.436;2024-02-26T07:30:49;19.38;;;9.23;;
13603;SDS011;24578;48.264;11.436;2024-02-26T07:36:51;19.27;;;9.40;;
13603;SDS011;24578;48.264;11.436;2024-02-26T07:42:53;20.83;;;9.23;;
13603;SDS011;24578;48.264;11.436;2024-02-26T07:48:55;19.60;;;8.73;;
13603;SDS011;24578;48.264;11.436;2024-02-26T07:54:57;17.88;;;8.80;;
13603;SDS011;24578;48.264;11.436;2024-02-26T08:01:00;19.05;;;8.57;;
13603;SDS011;24578;48.264;11.436;2024-02-26T08:07:02;15.73;;;8.02;;
13603;SDS011;24578;48.264;11.436;2024-02-26T08:13:04;16.75;;;7.93;;
13603;SDS011;24578;48.264;11.436;2024-02-26T08:19:08;15.57;;;7.43;;
13603;SDS011;24578;48.264;11.436;2024-02-26T08:25:13;16.38;;;7.40;;
13603;SDS011;24578;48.264;11.436;2024-02-26T08:31:15;24.77;;;11.70;;
13603;SDS011;24578;48.264;11.436;2024-02-26T08:37:18;12.10;;;6.18;;
13603;SDS011;24578;48.264;11.436;2024-02-26T08:43:20;15.25;;;7.10;;
13603;SDS011;24578;48.264;11.436;2024-02-26T08:49:21;14.45;;;6.32;;
13603;SDS011;24578;48.264;11.436;2024-02-26T08:55:25;14.80;;;7.00;;
13603;SDS011;24578;48.264;11.436;2024-02-26T09:01:27;12.73;;;6.47;;
13603;SDS011;24578;48.264;11.436;2024-02-26T09:07:30;17.70;;;7.97;;
13603;SDS011;24578;48.264;11.436;2024-02-26T09:13:33;16.17;;;6.85;;
13603;SDS011;24578;48.264;11.436;2024-02-26T09:19:35;16.98;;;7.60;;
13603;SDS011;24578;48.264;11.436;2024-02-26T09:25:37;51.05;;;23.42;;
13603;SDS011;24578;48.264;11.436;2024-02-26T09:31:38;15.15;;;7.00;;
13603;SDS011;24578;48.264;11.436;2024-02-26T09:37:42;12.75;;;6.13;;
13603;SDS011;24578;48.264;11.436;2024-02-26T09:43:46;14.50;;;6.60;;
13603;SDS011;24578;48.264;11.436;2024-02-26T09:49:52;10.90;;;5.40;;
13603;SDS011;24578;48.264;11.436;2024-02-26T09:55:56;11.23;;;5.00;;
13603;SDS011;24578;48.264;11.436;2024-02-26T10:01:57;10.38;;;4.93;;
13603;SDS011;24578;48.264;11.436;2024-02-26T10:08:01;9.68;;;4.80;;
13603;SDS011;24578;48.264;11.436;2024-02-26T10:14:02;9.45;;;4.30;;
13603;SDS011;24578;48.264;11.436;2024-02-26T10:20:15;9.18;;;4.53;;
13603;SDS011;24578;48.264;11.436;2024-02-26T10:26:21;8.35;;;3.42;;
13603;SDS011;24578;48.264;11.436;2024-02-26T10:32:27;10.10;;;3.47;;
13603;SDS011;24578;48.264;11.436;2024-02-26T10:38:29;8.00;;;3.72;;
13603;SDS011;24578;48.264;11.436;2024-02-26T10:44:32;9.02;;;3.63;;
13603;SDS011;24578;48.264;11.436;2024-02-26T10:50:34;8.75;;;3.83;;
13603;SDS011;24578;48.264;11.436;2024-02-26T10:56:36;18.77;;;9.45;;
13603;SDS011;24578;48.264;11.436;2024-02-26T11:02:43;7.45;;;3.22;;
13603;SDS011;24578;48.264;11.436;2024-02-26T11:08:48;6.97;;;3.00;;
13603;SDS011;24578;48.264;11.436;2024-02-26T11:14:51;8.45;;;2.50;;
13603;SDS011;24578;48.264;11.436;2024-02-26T11:20:57;7.85;;;2.90;;
13603;SDS011;24578;48.264;11.436;2024-02-26T11:27:01;8.13;;;3.40;;
13603;SDS011;24578;48.264;11.436;2024-02-26T11:33:06;6.47;;;2.85;;
13603;SDS011;24578;48.264;11.436;2024-02-26T11:39:11;6.63;;;2.53;;
13603;SDS011;24578;48.264;11.436;2024-02-26T11:51:41;6.13;;;2.65;;
13603;SDS011;24578;48.264;11.436;2024-02-26T11:57:43;7.20;;;2.33;;
13603;SDS011;24578;48.264;11.436;2024-02-26T12:03:46;12.95;;;6.50;;
13603;SDS011;24578;48.264;11.436;2024-02-26T12:09:48;5.97;;;2.13;;
13603;SDS011;24578;48.264;11.436;2024-02-26T12:21:56;5.40;;;1.77;;
13603;SDS011;24578;48.264;11.436;2024-02-26T12:27:58;5.88;;;1.83;;
13603;SDS011;24578;48.264;11.436;2024-02-26T12:34:00;5.45;;;1.83;;
13603;SDS011;24578;48.264;11.436;2024-02-26T12:40:04;5.55;;;1.98;;
13603;SDS011;24578;48.264;11.436;2024-02-26T12:46:09;7.32;;;2.38;;
13603;SDS011;24578;48.264;11.436;2024-02-26T12:52:12;5.47;;;2.38;;
13603;SDS011;24578;48.264;11.436;2024-02-26T12:58:15;5.65;;;2.67;;
13603;SDS011;24578;48.264;11.436;2024-02-26T13:04:17;5.55;;;2.10;;
13603;SDS011;24578;48.264;11.436;2024-02-26T13:10:19;6.32;;;2.17;;
13603;SDS011;24578;48.264;11.436;2024-02-26T13:16:23;6.15;;;2.80;;
13603;SDS011;24578;48.264;11.436;2024-02-26T13:22:27;7.05;;;2.35;;
13603;SDS011;24578;48.264;11.436;2024-02-26T13:28:31;5.95;;;2.17;;
13603;SDS011;24578;48.264;11.436;2024-02-26T13:34:34;6.22;;;2.30;;
13603;SDS011;24578;48.264;11.436;2024-02-26T13:40:37;7.10;;;2.00;;
13603;SDS011;24578;48.264;11.436;2024-02-26T13:46:41;5.75;;;2.03;;
13603;SDS011;24578;48.264;11.436;2024-02-26T13:52:43;5.82;;;1.70;;
13603;SDS011;24578;48.264;11.436;2024-02-26T13:58:44;4.72;;;1.60;;
13603;SDS011;24578;48.264;11.436;2024-02-26T14:04:47;12.02;;;6.70;;
13603;SDS011;24578;48.264;11.436;2024-02-26T14:10:49;5.18;;;1.70;;
13603;SDS011;24578;48.264;11.436;2024-02-26T14:16:50;4.53;;;1.45;;
13603;SDS011;24578;48.264;11.436;2024-02-26T14:22:52;4.63;;;1.48;;
13603;SDS011;24578;48.264;11.436;2024-02-26T14:28:55;4.70;;;1.60;;
13603;SDS011;24578;48.264;11.436;2024-02-26T14:34:57;4.85;;;1.42;;
13603;SDS011;24578;48.264;11.436;2024-02-26T14:40:59;5.60;;;1.50;;
13603;SDS011;24578;48.264;11.436;2024-02-26T14:47:01;4.20;;;1.23;;
13603;SDS011;24578;48.264;11.436;2024-02-26T14:53:03;4.10;;;1.17;;
13603;SDS011;24578;48.264;11.436;2024-02-26T14:59:05;4.18;;;1.40;;
13603;SDS011;24578;48.264;11.436;2024-02-26T15:05:07;5.38;;;1.60;;
13603;SDS011;24578;48.264;11.436;2024-02-26T15:11:11;5.85;;;1.63;;
13603;SDS011;24578;48.264;11.436;2024-02-26T15:17:14;4.20;;;1.55;;
13603;SDS011;24578;48.264;11.436;2024-02-26T15:23:15;4.20;;;1.55;;
13603;SDS011;24578;48.264;11.436;2024-02-26T15:29:18;4.30;;;1.33;;
13603;SDS011;24578;48.264;11.436;2024-02-26T15:35:21;4.85;;;1.50;;
13603;SDS011;24578;48.264;11.436;2024-02-26T15:41:22;5.53;;;1.60;;
13603;SDS011;24578;48.264;11.436;2024-02-26T15:47:24;12.23;;;3.92;;
13603;SDS011;24578;48.264;11.436;2024-02-26T15:53:26;5.43;;;1.65;;
13603;SDS011;24578;48.264;11.436;2024-02-26T15:59:29;6.05;;;1.67;;
13603;SDS011;24578;48.264;11.436;2024-02-26T16:05:30;5.20;;;1.75;;
13603;SDS011;24578;48.264;11.436;2024-02-26T16:11:33;4.63;;;1.55;;
13603;SDS011;24578;48.264;11.436;2024-02-26T16:17:36;6.57;;;2.40;;
13603;SDS011;24578;48.264;11.436;2024-02-26T16:23:43;5.53;;;2.17;;
13603;SDS011;24578;48.264;11.436;2024-02-26T16:29:45;7.35;;;2.90;;
13603;SDS011;24578;48.264;11.436;2024-02-26T16:35:48;7.88;;;2.17;;
13603;SDS011;24578;48.264;11.436;2024-02-26T16:41:51;6.75;;;3.13;;
13603;SDS011;24578;48.264;11.436;2024-02-26T16:47:53;8.10;;;2.92;;
13603;SDS011;24578;48.264;11.436;2024-02-26T16:53:55;5.68;;;1.98;;
13603;SDS011;24578;48.264;11.436;2024-02-26T16:59:57;4.90;;;1.77;;
13603;SDS011;24578;48.264;11.436;2024-02-26T17:05:59;6.45;;;1.98;;
13603;SDS011;24578;48.264;11.436;2024-02-26T17:12:03;5.85;;;2.30;;
13603;SDS011;24578;48.264;11.436;2024-02-26T17:18:05;5.90;;;2.05;;
13603;SDS011;24578;48.264;11.436;2024-02-26T17:24:14;4.75;;;1.73;;
13603;SDS011;24578;48.264;11.436;2024-02-26T17:30:16;6.07;;;2.10;;
13603;SDS011;24578;48.264;11.436;2024-02-26T17:36:18;5.72;;;2.08;;
13603;SDS011;24578;48.264;11.436;2024-02-26T17:42:20;11.40;;;6.47;;
13603;SDS011;24578;48.264;11.436;2024-02-26T17:48:21;11.77;;;4.90;;
13603;SDS011;24578;48.264;11.436;2024-02-26T17:54:24;6.22;;;2.00;;
13603;SDS011;24578;48.264;11.436;2024-02-26T18:00:27;5.88;;;1.90;;
13603;SDS011;24578;48.264;11.436;2024-02-26T18:06:30;6.25;;;2.47;;
13603;SDS011;24578;48.264;11.436;2024-02-26T18:12:32;6.50;;;2.20;;
13603;SDS011;24578;48.264;11.436;2024-02-26T18:18:35;8.20;;;2.55;;
13603;SDS011;24578;48.264;11.436;2024-02-26T18:24:38;6.97;;;2.58;;
13603;SDS011;24578;48.264;11.436;2024-02-26T18:30:40;6.68;;;2.53;;
13603;SDS011;24578;48.264;11.436;2024-02-26T18:36:46;12.20;;;5.55;;
13603;SDS011;24578;48.264;11.436;2024-02-26T18:42:48;8.45;;;3.35;;
13603;SDS011;24578;48.264;11.436;2024-02-26T18:48:50;7.40;;;2.90;;
13603;SDS011;24578;48.264;11.436;2024-02-26T18:54:54;8.82;;;3.40;;
13603;SDS011;24578;48.264;11.436;2024-02-26T19:00:56;8.07;;;3.30;;
13603;SDS011;24578;48.264;11.436;2024-02-26T19:06:58;7.10;;;3.10;;
13603;SDS011;24578;48.264;11.436;2024-02-26T19:13:00;7.65;;;3.03;;
13603;SDS011;24578;48.264;11.436;2024-02-26T19:19:02;8.45;;;3.53;;
13603;SDS011;24578;48.264;11.436;2024-02-26T19:25:04;8.50;;;3.88;;
13603;SDS011;24578;48.264;11.436;2024-02-26T19:31:06;12.93;;;6.53;;
13603;SDS011;24578;48.264;11.436;2024-02-26T19:37:12;8.48;;;3.53;;
13603;SDS011;24578;48.264;11.436;2024-02-26T19:43:13;8.55;;;3.47;;
13603;SDS011;24578;48.264;11.436;2024-02-26T19:49:16;6.93;;;3.25;;
13603;SDS011;24578;48.264;11.436;2024-02-26T19:55:18;7.07;;;3.22;;
13603;SDS011;24578;48.264;11.436;2024-02-26T20:01:22;6.85;;;2.90;;
13603;SDS011;24578;48.264;11.436;2024-02-26T20:07:24;7.25;;;3.03;;
13603;SDS011;24578;48.264;11.436;2024-02-26T20:13:26;16.90;;;7.70;;
13603;SDS011;24578;48.264;11.436;2024-02-26T20:19:29;9.48;;;3.92;;
13603;SDS011;24578;48.264;11.436;2024-02-26T20:25:31;7.90;;;3.83;;
13603;SDS011;24578;48.264;11.436;2024-02-26T20:31:33;7.97;;;3.38;;
13603;SDS011;24578;48.264;11.436;2024-02-26T20:37:36;8.50;;;3.70;;
13603;SDS011;24578;48.264;11.436;2024-02-26T20:43:38;7.43;;;3.65;;
13603;SDS011;24578;48.264;11.436;2024-02-26T20:49:40;10.25;;;4.72;;
13603;SDS011;24578;48.264;11.436;2024-02-26T20:55:47;10.07;;;3.97;;
13603;SDS011;24578;48.264;11.436;2024-02-26T21:02:07;8.63;;;3.53;;
13603;SDS011;24578;48.264;11.436;2024-02-26T21:08:10;7.72;;;3.17;;
13603;SDS011;24578;48.264;11.436;2024-02-26T21:14:29;8.70;;;3.35;;
13603;SDS011;24578;48.264;11.436;2024-02-26T21:20:31;8.35;;;3.53;;
13603;SDS011;24578;48.264;11.436;2024-02-26T21:26:34;7.93;;;3.38;;
13603;SDS011;24578;48.264;11.436;2024-02-26T21:32:36;8.32;;;3.25;;
13603;SDS011;24578;48.264;11.436;2024-02-26T21:38:39;8.32;;;3.60;;
13603;SDS011;24578;48.264;11.436;2024-02-26T21:44:50;8.38;;;3.20;;
13603;SDS011;24578;48.264;11.436;2024-02-26T21:50:52;7.15;;;3.20;;
13603;SDS011;24578;48.264;11.436;2024-02-26T21:56:56;8.63;;;3.33;;
13603;SDS011;24578;48.264;11.436;2024-02-26T22:02:58;9.23;;;4.28;;
13603;SDS011;24578;48.264;11.436;2024-02-26T22:09:01;8.15;;;3.30;;
13603;SDS011;24578;48.264;11.436;2024-02-26T22:15:05;9.43;;;3.40;;
13603;SDS011;24578;48.264;11.436;2024-02-26T22:27:11;7.53;;;3.20;;
13603;SDS011;24578;48.264;11.436;2024-02-26T22:33:14;7.43;;;3.10;;
13603;SDS011;24578;48.264;11.436;2024-02-26T22:39:16;8.43;;;3.22;;
13603;SDS011;24578;48.264;11.436;2024-02-26T22:45:17;9.13;;;3.40;;
13603;SDS011;24578;48.264;11.436;2024-02-26T22:51:19;9.68;;;3.38;;
13603;SDS011;24578;48.264;11.436;2024-02-26T22:57:21;8.35;;;3.53;;
13603;SDS011;24578;48.264;11.436;2024-02-26T23:03:23;9.68;;;3.72;;
13603;SDS011;24578;48.264;11.436;2024-02-26T23:09:25;9.18;;;3.72;;
13603;SDS011;24578;48.264;11.436;2024-02-26T23:15:27;9.18;;;4.22;;
13603;SDS011;24578;48.264;11.436;2024-02-26T23:21:29;11.18;;;4.47;;
13603;SDS011;24578;48.264;11.436;2024-02-26T23:27:32;12.02;;;4.68;;
13603;SDS011;24578;48.264;11.436;2024-02-26T23:33:34;8.75;;;4.10;;
13603;SDS011;24578;48.264;11.436;2024-02-26T23:39:36;9.95;;;4.43;;
13603;SDS011;24578;48.264;11.436;2024-02-26T23:45:38;8.90;;;4.10;;
13603;SDS011;24578;48.264;11.436;2024-02-26T23:51:41;9.88;;;4.55;;
13603;SDS011;24578;48.264;11.436;2024-02-26T23:57:43;11.85;;;4.57;;
